Time;durP1;ratioP1;P1;durP2;ratioP2;P2;SDS_P1;SDS_P2;PMS_P1;PMS_P2;Temp;Humidity;BMP_temperature;BMP_pressure;BME280_temperature;BME280_humidity;BME280_pressure;Samples;Min_cycle;Max_cycle;Signal;HPM_P1;HPM_P2
2023/12/29 00:01:40;;;;;;;159.50;18.55;;;;;;;;;;4920265;29;20036;-37
2023/12/29 00:04:07;;;;;;;165.80;18.15;;;;;;;;;;4928963;29;20062;-37
2023/12/29 00:06:34;;;;;;;165.45;17.58;;;;;;;;;;4934483;29;20039;-37
2023/12/29 00:09:02;;;;;;;144.05;15.88;;;;;;;;;;4926035;29;20398;-36
2023/12/29 00:11:29;;;;;;;120.47;14.15;;;;;;;;;;4915711;29;20119;-37
2023/12/29 00:13:56;;;;;;;125.75;15.27;;;;;;;;;;4914919;29;20379;-36
2023/12/29 00:16:23;;;;;;;117.28;13.57;;;;;;;;;;4922834;29;20423;-36
2023/12/29 00:18:50;;;;;;;145.93;15.10;;;;;;;;;;4924136;29;20024;-36
2023/12/29 00:21:17;;;;;;;126.38;16.27;;;;;;;;;;4918689;29;20763;-36
2023/12/29 00:23:44;;;;;;;153.10;16.63;;;;;;;;;;4919963;29;20040;-37
2023/12/29 00:26:11;;;;;;;127.53;15.38;;;;;;;;;;4917497;29;20387;-36
2023/12/29 00:28:40;;;;;;;120.25;15.05;;;;;;;;;;4917479;29;20028;-37
2023/12/29 00:31:08;;;;;;;112.68;12.38;;;;;;;;;;4921100;29;20039;-36
2023/12/29 00:33:35;;;;;;;125.68;13.18;;;;;;;;;;4931959;29;20502;-36
2023/12/29 00:36:02;;;;;;;126.22;13.98;;;;;;;;;;4933663;29;20482;-36
2023/12/29 00:38:29;;;;;;;117.53;12.88;;;;;;;;;;4933770;29;20039;-36
2023/12/29 00:40:56;;;;;;;96.05;12.57;;;;;;;;;;4922095;29;20028;-37
2023/12/29 00:43:23;;;;;;;117.25;11.52;;;;;;;;;;4930354;29;20130;-36
2023/12/29 00:45:50;;;;;;;91.70;12.35;;;;;;;;;;4933379;29;20078;-37
2023/12/29 00:48:17;;;;;;;71.13;11.23;;;;;;;;;;4933383;29;20039;-36
2023/12/29 00:50:44;;;;;;;91.43;11.40;;;;;;;;;;4933377;29;20032;-36
2023/12/29 00:53:11;;;;;;;97.10;10.43;;;;;;;;;;4933268;29;20019;-37
2023/12/29 00:55:38;;;;;;;90.55;9.93;;;;;;;;;;4931145;29;20414;-39
2023/12/29 00:58:28;;;;;;;107.43;10.93;;;;;;;;;;4929820;29;20028;-47
2023/12/29 01:01:14;;;;;;;75.03;9.07;;;;;;;;;;4900645;29;20483;-46
2023/12/29 01:03:41;;;;;;;71.75;9.25;;;;;;;;;;4934132;29;20098;-50
2023/12/29 01:06:08;;;;;;;118.07;12.30;;;;;;;;;;4933410;29;20075;-40
2023/12/29 01:08:35;;;;;;;164.45;18.77;;;;;;;;;;4934427;29;20813;-40
2023/12/29 01:11:02;;;;;;;158.10;17.45;;;;;;;;;;4919936;29;20035;-37
2023/12/29 01:13:29;;;;;;;156.95;16.85;;;;;;;;;;4935635;29;20031;-37
2023/12/29 01:15:56;;;;;;;144.82;16.10;;;;;;;;;;4931732;29;20027;-38
2023/12/29 01:18:23;;;;;;;154.32;14.95;;;;;;;;;;4933883;29;20423;-39
2023/12/29 01:20:50;;;;;;;120.13;13.23;;;;;;;;;;4918515;29;20689;-36
2023/12/29 01:23:18;;;;;;;119.60;12.63;;;;;;;;;;4930535;29;20058;-37
2023/12/29 01:25:45;;;;;;;122.03;12.68;;;;;;;;;;4937111;29;20453;-39
2023/12/29 01:28:12;;;;;;;105.90;13.90;;;;;;;;;;4936142;29;20047;-36
2023/12/29 01:30:39;;;;;;;125.43;13.68;;;;;;;;;;4936944;29;20027;-37
2023/12/29 01:33:06;;;;;;;89.47;11.77;;;;;;;;;;4919549;29;20048;-36
2023/12/29 01:35:33;;;;;;;90.32;13.13;;;;;;;;;;4935458;29;20043;-36
2023/12/29 01:38:00;;;;;;;89.78;13.55;;;;;;;;;;4923785;29;20111;-36
2023/12/29 01:40:27;;;;;;;86.90;13.43;;;;;;;;;;4936640;29;20103;-36
2023/12/29 01:42:54;;;;;;;134.05;16.38;;;;;;;;;;4936650;29;20031;-35
2023/12/29 01:45:23;;;;;;;150.07;19.05;;;;;;;;;;4937003;29;20031;-36
2023/12/29 01:47:51;;;;;;;117.70;19.90;;;;;;;;;;4936601;29;20063;-36
2023/12/29 01:50:18;;;;;;;128.32;18.55;;;;;;;;;;4936780;29;20070;-36
2023/12/29 01:52:46;;;;;;;123.57;18.73;;;;;;;;;;4923859;29;20085;-40
2023/12/29 01:55:16;;;;;;;107.97;20.10;;;;;;;;;;4936665;29;20059;-39
2023/12/29 01:57:43;;;;;;;107.05;21.52;;;;;;;;;;4924494;29;20028;-40
2023/12/29 02:00:12;;;;;;;114.30;23.33;;;;;;;;;;4936207;29;20058;-38
2023/12/29 02:02:39;;;;;;;118.85;22.27;;;;;;;;;;4936079;29;20039;-39
2023/12/29 02:05:07;;;;;;;133.45;22.38;;;;;;;;;;4930817;29;20024;-37
2023/12/29 02:07:34;;;;;;;139.07;21.58;;;;;;;;;;4923845;29;20785;-38
2023/12/29 02:10:02;;;;;;;121.38;22.00;;;;;;;;;;4935542;29;20040;-36
2023/12/29 02:12:30;;;;;;;110.00;20.20;;;;;;;;;;4928419;29;20024;-35
2023/12/29 02:14:57;;;;;;;111.32;20.60;;;;;;;;;;4917770;29;20035;-37
2023/12/29 02:17:28;;;;;;;133.25;19.48;;;;;;;;;;4936122;29;20539;-36
2023/12/29 02:19:56;;;;;;;124.60;18.15;;;;;;;;;;4936153;29;20347;-37
2023/12/29 02:22:23;;;;;;;117.45;17.30;;;;;;;;;;4936016;29;20030;-36
2023/12/29 02:24:50;;;;;;;88.90;15.02;;;;;;;;;;4936014;29;20038;-38
2023/12/29 02:27:35;;;;;;;81.25;13.32;;;;;;;;;;4925038;29;20044;-37
2023/12/29 02:30:17;;;;;;;86.75;13.48;;;;;;;;;;4930818;29;20047;-37
2023/12/29 02:32:45;;;;;;;69.00;11.68;;;;;;;;;;4928306;29;20091;-36
2023/12/29 02:35:18;;;;;;;66.50;12.25;;;;;;;;;;4935274;29;20024;-37
2023/12/29 02:37:46;;;;;;;79.47;12.50;;;;;;;;;;4935333;29;20079;-39
2023/12/29 02:40:13;;;;;;;91.57;12.60;;;;;;;;;;4921885;29;20059;-37
2023/12/29 02:42:45;;;;;;;69.53;11.85;;;;;;;;;;4929591;29;20447;-35
2023/12/29 02:45:12;;;;;;;56.55;12.02;;;;;;;;;;4927346;29;20063;-38
2023/12/29 02:47:39;;;;;;;52.47;11.93;;;;;;;;;;4925287;29;20044;-39
2023/12/29 02:50:06;;;;;;;67.10;12.80;;;;;;;;;;4926119;29;20020;-41
2023/12/29 02:52:33;;;;;;;65.95;12.00;;;;;;;;;;4935396;29;20028;-38
2023/12/29 02:55:00;;;;;;;78.25;13.07;;;;;;;;;;4933182;29;20028;-38
2023/12/29 02:57:27;;;;;;;83.45;14.38;;;;;;;;;;4928512;29;20514;-42
2023/12/29 02:59:54;;;;;;;84.97;13.13;;;;;;;;;;4933838;29;20494;-37
2023/12/29 03:02:21;;;;;;;84.00;14.82;;;;;;;;;;4934706;29;20024;-35
2023/12/29 03:04:49;;;;;;;81.53;13.93;;;;;;;;;;4919672;29;20395;-36
2023/12/29 03:07:16;;;;;;;86.30;13.30;;;;;;;;;;4920703;29;20427;-37
2023/12/29 03:09:43;;;;;;;68.75;12.57;;;;;;;;;;4928889;29;20067;-37
2023/12/29 03:12:10;;;;;;;82.13;13.85;;;;;;;;;;4925716;29;20031;-37
2023/12/29 03:14:37;;;;;;;133.50;16.40;;;;;;;;;;4934544;29;20123;-37
2023/12/29 03:17:04;;;;;;;121.80;16.38;;;;;;;;;;4934838;29;20034;-37
2023/12/29 03:19:31;;;;;;;115.72;14.50;;;;;;;;;;4932443;29;20032;-37
2023/12/29 03:21:58;;;;;;;83.80;9.45;;;;;;;;;;4923792;29;20035;-36
2023/12/29 03:24:25;;;;;;;52.55;7.68;;;;;;;;;;4930121;29;20060;-38
2023/12/29 03:26:52;;;;;;;47.47;7.22;;;;;;;;;;4922503;29;20046;-37
2023/12/29 03:29:19;;;;;;;47.85;6.35;;;;;;;;;;4923147;29;20048;-37
2023/12/29 03:31:46;;;;;;;31.80;5.13;;;;;;;;;;4920913;29;20037;-38
2023/12/29 03:34:13;;;;;;;24.95;4.45;;;;;;;;;;4918062;29;20514;-37
2023/12/29 03:36:40;;;;;;;20.88;4.00;;;;;;;;;;4917850;29;20027;-39
2023/12/29 03:39:07;;;;;;;27.13;3.50;;;;;;;;;;4918245;29;20047;-37
2023/12/29 03:41:34;;;;;;;28.85;3.78;;;;;;;;;;4917454;29;20087;-37
2023/12/29 03:44:01;;;;;;;38.50;5.28;;;;;;;;;;4917734;29;20039;-38
2023/12/29 03:46:28;;;;;;;32.03;3.40;;;;;;;;;;4918450;29;20397;-39
2023/12/29 03:48:57;;;;;;;35.90;4.07;;;;;;;;;;4915824;29;20130;-37
2023/12/29 03:51:25;;;;;;;38.35;3.45;;;;;;;;;;4923090;29;20016;-37
2023/12/29 03:53:52;;;;;;;37.90;3.60;;;;;;;;;;4924119;29;20039;-37
2023/12/29 03:56:19;;;;;;;26.67;3.08;;;;;;;;;;4919141;29;20032;-35
2023/12/29 03:58:47;;;;;;;27.15;4.22;;;;;;;;;;4919295;29;20542;-36
2023/12/29 04:01:18;;;;;;;23.83;3.03;;;;;;;;;;4919993;29;20040;-41
2023/12/29 04:03:45;;;;;;;16.55;2.00;;;;;;;;;;4915570;29;20024;-37
2023/12/29 04:06:12;;;;;;;15.23;2.22;;;;;;;;;;4916025;29;20031;-35
2023/12/29 04:08:39;;;;;;;12.35;1.50;;;;;;;;;;4920024;29;20051;-36
2023/12/29 04:11:06;;;;;;;19.52;1.80;;;;;;;;;;4917402;29;20035;-37
2023/12/29 04:13:34;;;;;;;14.18;1.45;;;;;;;;;;4915371;29;20099;-38
2023/12/29 04:16:01;;;;;;;15.80;1.50;;;;;;;;;;4915052;29;20364;-36
2023/12/29 04:18:28;;;;;;;12.90;1.25;;;;;;;;;;4916820;29;20031;-36
2023/12/29 04:20:55;;;;;;;9.82;0.85;;;;;;;;;;4921878;29;20451;-36
2023/12/29 04:23:22;;;;;;;14.98;1.30;;;;;;;;;;4928472;29;20047;-35
2023/12/29 04:25:49;;;;;;;11.10;0.85;;;;;;;;;;4934267;29;20019;-33
2023/12/29 04:28:16;;;;;;;10.40;1.38;;;;;;;;;;4933926;29;20036;-36
2023/12/29 04:30:43;;;;;;;8.35;0.73;;;;;;;;;;4934314;29;20032;-37
2023/12/29 04:33:10;;;;;;;8.82;0.93;;;;;;;;;;4934004;29;20115;-36
2023/12/29 04:35:37;;;;;;;7.20;0.90;;;;;;;;;;4917126;29;20032;-35
2023/12/29 04:38:05;;;;;;;8.27;1.05;;;;;;;;;;4934229;29;20035;-35
2023/12/29 04:40:32;;;;;;;9.15;0.95;;;;;;;;;;4938234;29;20114;-35
2023/12/29 04:42:59;;;;;;;8.25;1.20;;;;;;;;;;4938121;29;20364;-39
2023/12/29 04:45:25;;;;;;;9.38;1.40;;;;;;;;;;4920941;29;20027;-38
2023/12/29 04:47:52;;;;;;;11.38;1.30;;;;;;;;;;4937992;29;20038;-36
2023/12/29 04:50:19;;;;;;;10.60;1.33;;;;;;;;;;4937960;29;20118;-35
2023/12/29 04:52:46;;;;;;;11.75;1.50;;;;;;;;;;4937827;29;20455;-36
2023/12/29 04:55:13;;;;;;;14.55;1.80;;;;;;;;;;4937898;29;20043;-36
2023/12/29 04:57:41;;;;;;;6.97;1.40;;;;;;;;;;4938122;29;20090;-37
2023/12/29 05:00:08;;;;;;;9.90;1.75;;;;;;;;;;4937937;29;20199;-39
2023/12/29 05:02:35;;;;;;;14.18;1.30;;;;;;;;;;4937727;29;20024;-36
2023/12/29 05:05:02;;;;;;;7.80;1.40;;;;;;;;;;4937779;29;20055;-36
2023/12/29 05:07:29;;;;;;;10.15;1.38;;;;;;;;;;4920428;29;20057;-35
2023/12/29 05:09:56;;;;;;;11.40;1.02;;;;;;;;;;4937882;29;20028;-36
2023/12/29 05:12:23;;;;;;;5.68;0.98;;;;;;;;;;4937630;29;20032;-37
2023/12/29 05:14:50;;;;;;;5.53;0.82;;;;;;;;;;4937676;29;20024;-36
2023/12/29 05:17:17;;;;;;;5.95;1.23;;;;;;;;;;4937569;29;20162;-35
2023/12/29 05:19:43;;;;;;;8.70;0.98;;;;;;;;;;4937688;29;20486;-36
2023/12/29 05:22:15;;;;;;;8.95;0.90;;;;;;;;;;4937407;29;20039;-38
2023/12/29 05:24:43;;;;;;;10.37;0.90;;;;;;;;;;4937382;29;20035;-38
2023/12/29 05:27:10;;;;;;;9.80;1.20;;;;;;;;;;4937433;29;20028;-38
2023/12/29 05:29:37;;;;;;;7.72;0.95;;;;;;;;;;4937417;29;20027;-36
2023/12/29 05:32:05;;;;;;;9.50;1.02;;;;;;;;;;4937383;29;20450;-36
2023/12/29 05:34:31;;;;;;;9.85;0.88;;;;;;;;;;4937111;29;20441;-37
2023/12/29 05:36:58;;;;;;;5.82;1.00;;;;;;;;;;4937233;29;20035;-35
2023/12/29 05:39:25;;;;;;;11.75;1.60;;;;;;;;;;4937283;29;20051;-37
2023/12/29 05:41:52;;;;;;;4.20;1.45;;;;;;;;;;4937095;29;20525;-37
2023/12/29 05:44:20;;;;;;;11.68;1.80;;;;;;;;;;4937068;29;20028;-36
2023/12/29 05:46:47;;;;;;;9.95;2.03;;;;;;;;;;4931335;29;20031;-36
2023/12/29 05:49:14;;;;;;;6.97;2.00;;;;;;;;;;4887669;29;20035;-35
2023/12/29 05:51:41;;;;;;;7.85;1.67;;;;;;;;;;4917527;29;20032;-36
2023/12/29 05:54:08;;;;;;;7.78;2.00;;;;;;;;;;4917576;29;20028;-35
2023/12/29 05:56:35;;;;;;;9.23;1.80;;;;;;;;;;4924063;29;20075;-36
2023/12/29 05:59:02;;;;;;;5.18;1.20;;;;;;;;;;4922572;29;20443;-35
2023/12/29 06:01:29;;;;;;;7.88;1.02;;;;;;;;;;4919739;29;20087;-36
2023/12/29 06:03:56;;;;;;;3.53;0.90;;;;;;;;;;4919221;29;20375;-35
2023/12/29 06:06:23;;;;;;;3.75;0.80;;;;;;;;;;4936314;29;20090;-35
2023/12/29 06:08:50;;;;;;;3.42;0.70;;;;;;;;;;4936448;29;20035;-36
2023/12/29 06:11:17;;;;;;;5.63;0.60;;;;;;;;;;4936682;29;20050;-35
2023/12/29 06:13:44;;;;;;;6.47;0.90;;;;;;;;;;4936451;29;20028;-36
2023/12/29 06:16:18;;;;;;;5.43;0.90;;;;;;;;;;4936268;29;20027;-35
2023/12/29 06:18:44;;;;;;;1.75;0.75;;;;;;;;;;4936400;29;20506;-35
2023/12/29 06:21:11;;;;;;;5.38;0.90;;;;;;;;;;4936391;29;20486;-35
2023/12/29 06:23:38;;;;;;;4.65;0.90;;;;;;;;;;4936404;29;20523;-35
2023/12/29 06:26:05;;;;;;;4.88;0.90;;;;;;;;;;4935786;29;20035;-35
2023/12/29 06:28:32;;;;;;;7.80;0.98;;;;;;;;;;4936127;29;20058;-35
2023/12/29 06:30:59;;;;;;;5.55;1.02;;;;;;;;;;4936216;29;20020;-35
2023/12/29 06:33:29;;;;;;;8.93;1.00;;;;;;;;;;4935862;29;20075;-35
2023/12/29 06:35:56;;;;;;;2.55;1.20;;;;;;;;;;4936210;29;20140;-35
2023/12/29 06:38:23;;;;;;;7.68;1.63;;;;;;;;;;4935857;29;20106;-35
2023/12/29 06:40:50;;;;;;;11.88;1.80;;;;;;;;;;4935655;29;20035;-36
2023/12/29 06:43:17;;;;;;;6.13;2.10;;;;;;;;;;4933400;29;20028;-35
2023/12/29 06:45:44;;;;;;;7.35;1.60;;;;;;;;;;4935624;29;20038;-35
2023/12/29 06:48:11;;;;;;;14.00;1.58;;;;;;;;;;4935918;29;20042;-35
2023/12/29 06:50:38;;;;;;;8.63;1.63;;;;;;;;;;4935952;29;20042;-35
2023/12/29 06:53:05;;;;;;;6.72;1.00;;;;;;;;;;4935670;29;20111;-35
2023/12/29 06:55:32;;;;;;;15.00;1.10;;;;;;;;;;4935413;29;20039;-35
2023/12/29 06:57:59;;;;;;;11.15;0.90;;;;;;;;;;4935835;29;20111;-35
2023/12/29 07:00:27;;;;;;;8.38;1.00;;;;;;;;;;4935747;29;20036;-35
2023/12/29 07:02:54;;;;;;;4.95;0.80;;;;;;;;;;4934868;29;20063;-35
2023/12/29 07:05:21;;;;;;;6.20;0.70;;;;;;;;;;4935250;29;20036;-35
2023/12/29 07:07:51;;;;;;;10.57;1.02;;;;;;;;;;4935764;29;20040;-35
2023/12/29 07:10:18;;;;;;;13.90;1.10;;;;;;;;;;4935623;29;20038;-35
2023/12/29 07:12:45;;;;;;;18.23;1.70;;;;;;;;;;4935397;29;20038;-35
2023/12/29 07:15:13;;;;;;;20.27;1.40;;;;;;;;;;4935014;29;20446;-35
2023/12/29 07:17:40;;;;;;;14.85;1.25;;;;;;;;;;4935404;29;20118;-35
2023/12/29 07:20:08;;;;;;;17.25;1.50;;;;;;;;;;4935496;29;20027;-35
2023/12/29 07:22:35;;;;;;;11.45;1.30;;;;;;;;;;4935190;29;20039;-35
2023/12/29 07:25:02;;;;;;;8.77;1.63;;;;;;;;;;4935296;29;20130;-35
2023/12/29 07:27:29;;;;;;;8.75;1.80;;;;;;;;;;4933558;29;20040;-35
2023/12/29 07:29:56;;;;;;;10.27;1.92;;;;;;;;;;4935258;29;20032;-35
2023/12/29 07:32:23;;;;;;;11.52;2.00;;;;;;;;;;4935105;29;20456;-35
2023/12/29 07:34:50;;;;;;;12.38;2.30;;;;;;;;;;4934904;29;20059;-35
2023/12/29 07:37:17;;;;;;;8.10;2.22;;;;;;;;;;4934628;29;20546;-35
2023/12/29 07:39:45;;;;;;;13.40;2.20;;;;;;;;;;4935008;29;20031;-35
2023/12/29 07:42:12;;;;;;;10.30;1.95;;;;;;;;;;4934827;29;20070;-35
2023/12/29 07:44:40;;;;;;;7.20;1.90;;;;;;;;;;4935011;29;20028;-35
2023/12/29 07:47:07;;;;;;;8.98;1.80;;;;;;;;;;4934314;29;20100;-35
2023/12/29 07:49:34;;;;;;;8.52;1.90;;;;;;;;;;4934944;29;20089;-36
2023/12/29 07:52:01;;;;;;;13.65;1.75;;;;;;;;;;4934742;29;20063;-35
2023/12/29 07:54:28;;;;;;;6.65;1.95;;;;;;;;;;4934888;29;20513;-35
2023/12/29 07:56:55;;;;;;;9.45;1.50;;;;;;;;;;4934318;29;20030;-35
2023/12/29 07:59:22;;;;;;;9.40;1.83;;;;;;;;;;4934730;29;20043;-35
2023/12/29 08:01:49;;;;;;;14.20;1.63;;;;;;;;;;4934607;29;20427;-35
2023/12/29 08:04:16;;;;;;;7.28;1.20;;;;;;;;;;4934685;29;20031;-35
2023/12/29 08:06:43;;;;;;;10.48;1.10;;;;;;;;;;4934236;29;20035;-35
2023/12/29 08:09:10;;;;;;;10.82;1.77;;;;;;;;;;4934599;29;20039;-35
2023/12/29 08:11:37;;;;;;;9.60;1.35;;;;;;;;;;4934468;29;20024;-34
2023/12/29 08:14:06;;;;;;;13.75;1.52;;;;;;;;;;4923604;29;20079;-35
2023/12/29 08:16:33;;;;;;;14.65;1.67;;;;;;;;;;4915042;29;20043;-35
2023/12/29 08:19:00;;;;;;;11.13;1.70;;;;;;;;;;4915482;29;20024;-35
2023/12/29 08:21:27;;;;;;;13.57;1.83;;;;;;;;;;4915336;29;20031;-35
2023/12/29 08:23:54;;;;;;;17.30;2.35;;;;;;;;;;4915383;29;20028;-35
2023/12/29 08:26:21;;;;;;;16.52;1.83;;;;;;;;;;4915249;29;20032;-36
2023/12/29 08:28:48;;;;;;;10.65;2.03;;;;;;;;;;4915245;29;20115;-35
2023/12/29 08:31:16;;;;;;;7.97;1.85;;;;;;;;;;4915276;29;20514;-35
2023/12/29 08:33:43;;;;;;;14.90;1.73;;;;;;;;;;4915090;29;20411;-35
2023/12/29 08:36:10;;;;;;;13.05;1.50;;;;;;;;;;4915461;29;20031;-35
2023/12/29 08:38:37;;;;;;;9.15;1.35;;;;;;;;;;4914907;29;20086;-35
2023/12/29 08:41:04;;;;;;;11.30;1.48;;;;;;;;;;4915237;29;20566;-35
2023/12/29 08:43:31;;;;;;;17.45;1.38;;;;;;;;;;4915179;29;20028;-34
2023/12/29 08:45:58;;;;;;;7.43;1.50;;;;;;;;;;4915303;29;20036;-35
2023/12/29 08:48:25;;;;;;;13.55;1.30;;;;;;;;;;4914861;29;20080;-35
2023/12/29 08:50:52;;;;;;;14.93;1.27;;;;;;;;;;4915160;29;20043;-35
2023/12/29 08:53:19;;;;;;;10.35;1.40;;;;;;;;;;4915135;29;20547;-35
2023/12/29 08:55:46;;;;;;;13.13;1.00;;;;;;;;;;4915059;29;20079;-36
2023/12/29 08:58:13;;;;;;;15.48;1.40;;;;;;;;;;4914795;29;20103;-35
2023/12/29 09:00:40;;;;;;;9.98;1.00;;;;;;;;;;4913935;29;20028;-35
2023/12/29 09:03:07;;;;;;;18.05;1.23;;;;;;;;;;4915028;29;20060;-35
2023/12/29 09:05:34;;;;;;;17.58;1.00;;;;;;;;;;4898046;29;20032;-36
2023/12/29 09:08:01;;;;;;;10.75;1.00;;;;;;;;;;4914624;29;20032;-35
2023/12/29 09:10:28;;;;;;;14.70;1.40;;;;;;;;;;4915043;29;20032;-35
2023/12/29 09:12:55;;;;;;;11.30;1.20;;;;;;;;;;4914813;29;20036;-35
2023/12/29 09:15:23;;;;;;;12.60;1.38;;;;;;;;;;4915041;29;20103;-35
2023/12/29 09:17:50;;;;;;;10.77;1.13;;;;;;;;;;4914511;29;20036;-34
2023/12/29 09:20:18;;;;;;;10.45;1.35;;;;;;;;;;4915087;29;20465;-34
2023/12/29 09:22:45;;;;;;;23.92;2.00;;;;;;;;;;4914877;29;20016;-35
2023/12/29 09:25:12;;;;;;;19.05;1.48;;;;;;;;;;4916572;29;20028;-34
2023/12/29 09:27:39;;;;;;;22.73;1.85;;;;;;;;;;4918042;29;20067;-34
2023/12/29 09:30:06;;;;;;;13.13;1.20;;;;;;;;;;4918445;29;20032;-35
2023/12/29 09:32:33;;;;;;;12.02;1.30;;;;;;;;;;4918299;29;20447;-35
2023/12/29 09:35:00;;;;;;;21.52;1.77;;;;;;;;;;4918055;29;20052;-35
2023/12/29 09:37:27;;;;;;;21.83;1.75;;;;;;;;;;4918356;29;20558;-34
2023/12/29 09:39:54;;;;;;;11.75;1.95;;;;;;;;;;4917876;29;20555;-35
2023/12/29 09:42:25;;;;;;;18.75;2.00;;;;;;;;;;4918138;29;20039;-35
2023/12/29 09:44:52;;;;;;;16.88;2.17;;;;;;;;;;4918198;29;20607;-35
2023/12/29 09:47:23;;;;;;;45.08;3.60;;;;;;;;;;4918014;29;20054;-35
2023/12/29 09:49:50;;;;;;;19.15;2.45;;;;;;;;;;4916767;29;20418;-35
2023/12/29 09:52:17;;;;;;;24.50;2.25;;;;;;;;;;4917942;29;20051;-35
2023/12/29 09:54:45;;;;;;;40.63;3.30;;;;;;;;;;4917906;29;20538;-35
2023/12/29 09:57:12;;;;;;;24.98;2.30;;;;;;;;;;4917820;29;20075;-35
2023/12/29 09:59:41;;;;;;;21.88;2.50;;;;;;;;;;4917514;29;20031;-34
2023/12/29 10:02:26;;;;;;;14.93;2.15;;;;;;;;;;4917730;29;20103;-34
2023/12/29 10:04:53;;;;;;;16.38;2.35;;;;;;;;;;4917775;29;20028;-35
2023/12/29 10:07:26;;;;;;;23.25;2.33;;;;;;;;;;4917815;29;20051;-34
2023/12/29 10:09:54;;;;;;;15.38;1.60;;;;;;;;;;4917390;29;20082;-35
2023/12/29 10:12:22;;;;;;;11.88;1.77;;;;;;;;;;4917638;29;20124;-35
2023/12/29 10:15:12;;;;;;;12.25;2.10;;;;;;;;;;4917674;29;20032;-34
2023/12/29 10:17:57;;;;;;;23.60;2.10;;;;;;;;;;4915555;29;20548;-34
2023/12/29 10:20:34;;;;;;;32.20;2.58;;;;;;;;;;4934275;29;20617;-35
2023/12/29 10:23:09;;;;;;;11.85;1.58;;;;;;;;;;4924327;29;20043;-35
2023/12/29 10:25:36;;;;;;;7.75;1.48;;;;;;;;;;4917298;29;20056;-35
2023/12/29 10:28:03;;;;;;;22.83;2.35;;;;;;;;;;4917397;29;20032;-35
2023/12/29 10:30:31;;;;;;;24.17;2.13;;;;;;;;;;4911190;29;20123;-35
2023/12/29 10:33:00;;;;;;;16.05;2.17;;;;;;;;;;4920449;29;20029;-35
2023/12/29 10:35:27;;;;;;;20.35;2.15;;;;;;;;;;4917444;29;20075;-35
2023/12/29 10:37:54;;;;;;;22.42;2.13;;;;;;;;;;4922945;29;20024;-35
2023/12/29 10:40:22;;;;;;;23.05;2.03;;;;;;;;;;4926550;29;20515;-35
2023/12/29 10:42:57;;;;;;;34.03;2.30;;;;;;;;;;4921106;29;20032;-35
2023/12/29 10:45:24;;;;;;;14.27;1.58;;;;;;;;;;4935670;29;20054;-35
2023/12/29 10:47:52;;;;;;;20.17;2.42;;;;;;;;;;4936135;29;20031;-35
2023/12/29 10:50:19;;;;;;;16.45;1.90;;;;;;;;;;4935528;29;20024;-34
2023/12/29 10:52:46;;;;;;;24.05;2.65;;;;;;;;;;4935894;29;20016;-34
2023/12/29 10:55:13;;;;;;;11.60;1.73;;;;;;;;;;4935884;29;20030;-35
2023/12/29 10:57:41;;;;;;;18.15;1.70;;;;;;;;;;4935865;29;20132;-35
2023/12/29 11:00:12;;;;;;;23.40;2.40;;;;;;;;;;4935446;29;20034;-35
2023/12/29 11:02:39;;;;;;;82.43;6.00;;;;;;;;;;4935524;29;20035;-35
2023/12/29 11:05:10;;;;;;;33.90;3.03;;;;;;;;;;4935524;29;20060;-35
2023/12/29 11:07:38;;;;;;;18.90;1.88;;;;;;;;;;4935478;29;20418;-35
2023/12/29 11:10:06;;;;;;;31.05;2.35;;;;;;;;;;4922009;29;20028;-35
2023/12/29 11:12:35;;;;;;;59.20;4.70;;;;;;;;;;4929894;29;20124;-36
2023/12/29 11:15:03;;;;;;;37.25;2.83;;;;;;;;;;4919976;29;20205;-36
2023/12/29 11:17:32;;;;;;;39.95;2.95;;;;;;;;;;4920474;29;21585;-36
2023/12/29 11:20:04;;;;;;;17.80;2.50;;;;;;;;;;4931957;29;20504;-36
2023/12/29 11:22:31;;;;;;;44.53;4.03;;;;;;;;;;4915426;29;20032;-32
2023/12/29 11:25:01;;;;;;;536.05;33.42;;;;;;;;;;4922583;29;20780;-35
2023/12/29 11:27:30;;;;;;;128.40;7.65;;;;;;;;;;4917042;29;20122;-36
2023/12/29 11:30:00;;;;;;;108.60;6.47;;;;;;;;;;4929217;29;20030;-36
2023/12/29 11:33:05;;;;;;;29.17;2.15;;;;;;;;;;4934642;29;20470;-37
2023/12/29 11:35:49;;;;;;;17.25;1.85;;;;;;;;;;4857595;29;20191;-39
2023/12/29 11:38:26;;;;;;;49.20;3.92;;;;;;;;;;4856891;29;20072;-39
2023/12/29 11:41:11;;;;;;;29.33;2.70;;;;;;;;;;4908713;29;20040;-46
2023/12/29 11:43:38;;;;;;;52.00;4.40;;;;;;;;;;4934802;29;20035;-41
2023/12/29 11:46:05;;;;;;;62.97;4.65;;;;;;;;;;4934951;29;20023;-40
2023/12/29 11:48:50;;;;;;;92.43;6.53;;;;;;;;;;4933308;29;20191;-40
2023/12/29 11:51:36;;;;;;;69.70;5.32;;;;;;;;;;4932418;29;20498;-38
2023/12/29 11:54:04;;;;;;;74.53;6.88;;;;;;;;;;4933161;29;20390;-38
2023/12/29 11:56:32;;;;;;;81.65;6.68;;;;;;;;;;4934580;29;20055;-38
2023/12/29 11:59:13;;;;;;;72.65;6.20;;;;;;;;;;4933192;29;20058;-38
2023/12/29 12:01:40;;;;;;;51.27;6.03;;;;;;;;;;4934239;29;20492;-38
2023/12/29 12:04:25;;;;;;;87.88;7.05;;;;;;;;;;4934720;29;20059;-38
2023/12/29 12:06:52;;;;;;;78.20;6.90;;;;;;;;;;4934580;29;20026;-38
2023/12/29 12:09:25;;;;;;;62.05;8.52;;;;;;;;;;4932893;29;20031;-38
2023/12/29 12:11:52;;;;;;;48.20;5.18;;;;;;;;;;4934183;29;20431;-39
2023/12/29 12:14:37;;;;;;;72.30;6.53;;;;;;;;;;4934585;29;20032;-39
2023/12/29 12:17:04;;;;;;;90.63;7.68;;;;;;;;;;4934563;29;20135;-38
2023/12/29 12:19:35;;;;;;;53.25;5.40;;;;;;;;;;4932960;29;20394;-38
2023/12/29 12:22:03;;;;;;;59.95;6.70;;;;;;;;;;4934206;29;20039;-38
2023/12/29 12:24:30;;;;;;;64.30;7.68;;;;;;;;;;4934462;29;20130;-38
2023/12/29 12:26:57;;;;;;;91.03;8.50;;;;;;;;;;4934419;29;20475;-38
2023/12/29 12:29:25;;;;;;;56.38;6.03;;;;;;;;;;4934512;29;20028;-38
2023/12/29 12:31:55;;;;;;;63.08;6.22;;;;;;;;;;4934000;29;20031;-39
2023/12/29 12:34:23;;;;;;;63.00;6.07;;;;;;;;;;4934105;29;20048;-38
2023/12/29 12:36:50;;;;;;;131.52;11.02;;;;;;;;;;4934336;29;20035;-38
2023/12/29 12:39:17;;;;;;;138.30;11.30;;;;;;;;;;4934173;29;20056;-39
2023/12/29 12:41:45;;;;;;;111.95;10.65;;;;;;;;;;4934207;29;20024;-38
2023/12/29 12:44:16;;;;;;;112.30;12.35;;;;;;;;;;4934381;29;20483;-38
2023/12/29 12:46:52;;;;;;;165.20;18.02;;;;;;;;;;4934188;29;20057;-39
2023/12/29 12:49:19;;;;;;;160.73;17.70;;;;;;;;;;4934126;29;20091;-39
2023/12/29 12:51:46;;;;;;;188.38;24.05;;;;;;;;;;4934105;29;20490;-38
2023/12/29 12:54:13;;;;;;;128.52;18.70;;;;;;;;;;4934211;29;20398;-38
2023/12/29 12:56:42;;;;;;;156.93;20.13;;;;;;;;;;4934207;29;20024;-39
2023/12/29 12:59:10;;;;;;;307.88;27.13;;;;;;;;;;4934309;29;20094;-39
2023/12/29 13:01:37;;;;;;;273.85;26.30;;;;;;;;;;4937815;29;20103;-39
2023/12/29 13:04:05;;;;;;;158.98;15.85;;;;;;;;;;4938029;29;20132;-39
2023/12/29 13:06:35;;;;;;;137.40;13.35;;;;;;;;;;4937966;29;20039;-39
2023/12/29 13:09:03;;;;;;;120.60;14.10;;;;;;;;;;4937801;29;20451;-38
2023/12/29 13:11:30;;;;;;;185.73;21.90;;;;;;;;;;4937636;29;20063;-39
2023/12/29 13:13:57;;;;;;;96.65;10.65;;;;;;;;;;4937764;29;20031;-39
2023/12/29 13:16:34;;;;;;;80.30;9.00;;;;;;;;;;4937560;29;20151;-39
2023/12/29 13:19:20;;;;;;;142.57;12.75;;;;;;;;;;4937552;29;20099;-39
2023/12/29 13:21:57;;;;;;;80.15;9.48;;;;;;;;;;4937033;29;20075;-39
2023/12/29 13:24:25;;;;;;;63.42;6.57;;;;;;;;;;4937220;29;20398;-40
2023/12/29 13:26:52;;;;;;;63.03;6.93;;;;;;;;;;4937452;29;20038;-39
2023/12/29 13:29:20;;;;;;;97.40;7.20;;;;;;;;;;4932301;29;20035;-39
2023/12/29 13:31:51;;;;;;;78.35;7.85;;;;;;;;;;4925578;29;20107;-39
2023/12/29 13:34:22;;;;;;;76.20;7.68;;;;;;;;;;4928247;29;20052;-39
2023/12/29 13:37:01;;;;;;;98.53;9.27;;;;;;;;;;4934475;29;20028;-39
2023/12/29 13:39:37;;;;;;;82.93;7.13;;;;;;;;;;4937307;29;20027;-39
2023/12/29 13:42:04;;;;;;;97.00;9.38;;;;;;;;;;4936452;29;20028;-39
2023/12/29 13:44:31;;;;;;;57.08;6.45;;;;;;;;;;4933949;29;20063;-39
2023/12/29 13:46:59;;;;;;;82.85;8.13;;;;;;;;;;4925027;29;20062;-39
2023/12/29 13:49:26;;;;;;;92.15;9.13;;;;;;;;;;4928069;29;20064;-38
2023/12/29 13:51:53;;;;;;;82.35;8.23;;;;;;;;;;4926288;29;20504;-39
2023/12/29 13:54:21;;;;;;;98.60;10.05;;;;;;;;;;4927569;29;20035;-39
2023/12/29 13:56:54;;;;;;;108.55;9.50;;;;;;;;;;4926259;29;20036;-39
2023/12/29 13:59:34;;;;;;;69.15;7.28;;;;;;;;;;4925162;29;20020;-39
2023/12/29 14:02:04;;;;;;;33.70;4.07;;;;;;;;;;4922527;29;20115;-39
2023/12/29 14:04:31;;;;;;;37.80;4.18;;;;;;;;;;4930337;29;20036;-39
2023/12/29 14:07:02;;;;;;;27.20;3.17;;;;;;;;;;4924756;29;20087;-39
2023/12/29 14:09:29;;;;;;;31.75;4.15;;;;;;;;;;4917749;29;20036;-39
2023/12/29 14:11:56;;;;;;;32.20;4.13;;;;;;;;;;4917606;29;20039;-38
2023/12/29 14:14:26;;;;;;;27.65;3.72;;;;;;;;;;4917767;29;20032;-38
2023/12/29 14:16:54;;;;;;;36.28;4.00;;;;;;;;;;4917748;29;20039;-38
2023/12/29 14:19:21;;;;;;;39.70;4.60;;;;;;;;;;4917498;29;20120;-38
2023/12/29 14:21:50;;;;;;;69.53;6.57;;;;;;;;;;4917423;29;20024;-38
2023/12/29 14:24:17;;;;;;;50.78;5.60;;;;;;;;;;4917546;29;20102;-38
2023/12/29 14:26:53;;;;;;;27.52;3.72;;;;;;;;;;4917433;29;20431;-38
2023/12/29 14:29:20;;;;;;;38.55;3.53;;;;;;;;;;4917394;29;20058;-38
2023/12/29 14:31:48;;;;;;;34.10;3.97;;;;;;;;;;4917365;29;20054;-38
2023/12/29 14:34:15;;;;;;;37.67;4.40;;;;;;;;;;4925300;29;20511;-39